sensor_id;sensor_type;location;lat;lon;timestamp;P1;durP1;ratioP1;P2;durP2;ratioP2
80307;SDS011;69616;43.522;1.348;2023-07-13T00:02:04;6.73;;;2.27;;
80307;SDS011;69616;43.522;1.348;2023-07-13T00:04:30;7.35;;;1.98;;
80307;SDS011;69616;43.522;1.348;2023-07-13T00:06:55;6.63;;;2.40;;
80307;SDS011;69616;43.522;1.348;2023-07-13T00:09:21;7.27;;;1.90;;
80307;SDS011;69616;43.522;1.348;2023-07-13T00:11:49;5.55;;;1.95;;
80307;SDS011;69616;43.522;1.348;2023-07-13T00:14:17;6.78;;;2.28;;
80307;SDS011;69616;43.522;1.348;2023-07-13T00:16:42;5.80;;;2.20;;
80307;SDS011;69616;43.522;1.348;2023-07-13T00:19:08;5.70;;;2.00;;
80307;SDS011;69616;43.522;1.348;2023-07-13T00:21:35;6.47;;;2.00;;
80307;SDS011;69616;43.522;1.348;2023-07-13T00:24:00;5.13;;;2.00;;
80307;SDS011;69616;43.522;1.348;2023-07-13T00:26:26;8.80;;;2.33;;
80307;SDS011;69616;43.522;1.348;2023-07-13T00:28:51;5.93;;;1.92;;
80307;SDS011;69616;43.522;1.348;2023-07-13T00:31:17;5.27;;;2.20;;
80307;SDS011;69616;43.522;1.348;2023-07-13T00:33:43;6.27;;;2.30;;
80307;SDS011;69616;43.522;1.348;2023-07-13T00:36:09;5.87;;;2.07;;
80307;SDS011;69616;43.522;1.348;2023-07-13T00:38:35;6.18;;;2.00;;
80307;SDS011;69616;43.522;1.348;2023-07-13T00:41:00;8.23;;;2.10;;
80307;SDS011;69616;43.522;1.348;2023-07-13T00:43:27;5.65;;;2.10;;
80307;SDS011;69616;43.522;1.348;2023-07-13T00:48:20;6.60;;;2.27;;
80307;SDS011;69616;43.522;1.348;2023-07-13T00:50:48;7.72;;;2.30;;
80307;SDS011;69616;43.522;1.348;2023-07-13T00:53:17;5.28;;;2.00;;
80307;SDS011;69616;43.522;1.348;2023-07-13T00:55:43;5.37;;;2.00;;
80307;SDS011;69616;43.522;1.348;2023-07-13T00:58:09;6.25;;;2.08;;
80307;SDS011;69616;43.522;1.348;2023-07-13T01:00:35;5.65;;;2.05;;
80307;SDS011;69616;43.522;1.348;2023-07-13T01:03:02;5.83;;;1.80;;
80307;SDS011;69616;43.522;1.348;2023-07-13T01:05:29;5.53;;;1.98;;
80307;SDS011;69616;43.522;1.348;2023-07-13T01:07:57;5.18;;;2.03;;
80307;SDS011;69616;43.522;1.348;2023-07-13T01:10:24;6.05;;;2.00;;
80307;SDS011;69616;43.522;1.348;2023-07-13T01:12:50;7.63;;;1.90;;
80307;SDS011;69616;43.522;1.348;2023-07-13T01:15:35;5.17;;;2.07;;
80307;SDS011;69616;43.522;1.348;2023-07-13T01:18:01;7.30;;;2.25;;
80307;SDS011;69616;43.522;1.348;2023-07-13T01:20:28;4.90;;;1.90;;
80307;SDS011;69616;43.522;1.348;2023-07-13T01:22:53;6.03;;;1.73;;
80307;SDS011;69616;43.522;1.348;2023-07-13T01:25:19;8.20;;;1.97;;
80307;SDS011;69616;43.522;1.348;2023-07-13T01:27:46;5.38;;;1.70;;
80307;SDS011;69616;43.522;1.348;2023-07-13T01:30:11;6.00;;;1.93;;
80307;SDS011;69616;43.522;1.348;2023-07-13T01:32:37;5.93;;;1.80;;
80307;SDS011;69616;43.522;1.348;2023-07-13T01:35:02;4.85;;;2.00;;
80307;SDS011;69616;43.522;1.348;2023-07-13T01:37:28;4.77;;;1.80;;
80307;SDS011;69616;43.522;1.348;2023-07-13T01:39:58;6.60;;;1.90;;
80307;SDS011;69616;43.522;1.348;2023-07-13T01:42:24;5.15;;;1.90;;
80307;SDS011;69616;43.522;1.348;2023-07-13T01:44:49;6.57;;;2.00;;
80307;SDS011;69616;43.522;1.348;2023-07-13T01:47:14;7.70;;;2.40;;
80307;SDS011;69616;43.522;1.348;2023-07-13T01:49:40;5.87;;;1.80;;
80307;SDS011;69616;43.522;1.348;2023-07-13T01:52:06;5.00;;;1.63;;
80307;SDS011;69616;43.522;1.348;2023-07-13T01:54:32;4.57;;;1.85;;
80307;SDS011;69616;43.522;1.348;2023-07-13T01:56:58;5.05;;;1.75;;
80307;SDS011;69616;43.522;1.348;2023-07-13T01:59:24;5.00;;;2.03;;
80307;SDS011;69616;43.522;1.348;2023-07-13T02:01:50;7.20;;;2.40;;
80307;SDS011;69616;43.522;1.348;2023-07-13T02:04:15;5.77;;;1.83;;
80307;SDS011;69616;43.522;1.348;2023-07-13T02:06:40;5.57;;;2.10;;
80307;SDS011;69616;43.522;1.348;2023-07-13T02:09:06;6.00;;;1.83;;
80307;SDS011;69616;43.522;1.348;2023-07-13T02:11:32;8.03;;;2.03;;
80307;SDS011;69616;43.522;1.348;2023-07-13T02:13:59;6.60;;;1.70;;
80307;SDS011;69616;43.522;1.348;2023-07-13T02:16:27;4.57;;;1.70;;
80307;SDS011;69616;43.522;1.348;2023-07-13T02:18:52;7.22;;;1.80;;
80307;SDS011;69616;43.522;1.348;2023-07-13T02:21:18;8.17;;;1.87;;
80307;SDS011;69616;43.522;1.348;2023-07-13T02:23:43;6.60;;;1.60;;
80307;SDS011;69616;43.522;1.348;2023-07-13T02:26:08;6.33;;;1.73;;
80307;SDS011;69616;43.522;1.348;2023-07-13T02:28:35;6.65;;;1.70;;
80307;SDS011;69616;43.522;1.348;2023-07-13T02:31:07;7.20;;;1.97;;
80307;SDS011;69616;43.522;1.348;2023-07-13T02:33:33;7.18;;;2.08;;
80307;SDS011;69616;43.522;1.348;2023-07-13T02:35:59;6.57;;;1.70;;
80307;SDS011;69616;43.522;1.348;2023-07-13T02:38:24;6.95;;;2.13;;
80307;SDS011;69616;43.522;1.348;2023-07-13T02:40:50;6.93;;;2.13;;
80307;SDS011;69616;43.522;1.348;2023-07-13T02:43:15;4.93;;;1.93;;
80307;SDS011;69616;43.522;1.348;2023-07-13T02:45:44;5.50;;;2.10;;
80307;SDS011;69616;43.522;1.348;2023-07-13T02:48:10;7.33;;;1.80;;
80307;SDS011;69616;43.522;1.348;2023-07-13T02:50:36;7.38;;;2.13;;
80307;SDS011;69616;43.522;1.348;2023-07-13T02:53:01;8.23;;;1.77;;
80307;SDS011;69616;43.522;1.348;2023-07-13T02:55:27;5.90;;;1.63;;
80307;SDS011;69616;43.522;1.348;2023-07-13T02:57:52;6.60;;;1.83;;
80307;SDS011;69616;43.522;1.348;2023-07-13T03:00:19;6.65;;;1.67;;
80307;SDS011;69616;43.522;1.348;2023-07-13T03:02:44;8.90;;;1.60;;
80307;SDS011;69616;43.522;1.348;2023-07-13T03:05:10;7.10;;;1.35;;
80307;SDS011;69616;43.522;1.348;2023-07-13T03:07:37;6.57;;;1.50;;
80307;SDS011;69616;43.522;1.348;2023-07-13T03:10:04;8.48;;;1.65;;
80307;SDS011;69616;43.522;1.348;2023-07-13T03:12:29;8.40;;;1.60;;
80307;SDS011;69616;43.522;1.348;2023-07-13T03:14:55;8.97;;;1.80;;
80307;SDS011;69616;43.522;1.348;2023-07-13T03:17:20;7.53;;;1.60;;
80307;SDS011;69616;43.522;1.348;2023-07-13T03:19:46;7.00;;;1.50;;
80307;SDS011;69616;43.522;1.348;2023-07-13T03:22:15;8.52;;;1.75;;
80307;SDS011;69616;43.522;1.348;2023-07-13T03:24:41;5.60;;;1.40;;
80307;SDS011;69616;43.522;1.348;2023-07-13T03:27:06;10.10;;;1.87;;
80307;SDS011;69616;43.522;1.348;2023-07-13T03:29:32;5.73;;;1.60;;
80307;SDS011;69616;43.522;1.348;2023-07-13T03:31:57;8.93;;;1.65;;
80307;SDS011;69616;43.522;1.348;2023-07-13T03:34:23;5.83;;;1.47;;
80307;SDS011;69616;43.522;1.348;2023-07-13T03:36:48;7.53;;;1.70;;
80307;SDS011;69616;43.522;1.348;2023-07-13T03:39:14;7.83;;;1.67;;
80307;SDS011;69616;43.522;1.348;2023-07-13T03:41:39;6.90;;;1.53;;
80307;SDS011;69616;43.522;1.348;2023-07-13T03:44:04;8.57;;;2.00;;
80307;SDS011;69616;43.522;1.348;2023-07-13T03:46:30;6.77;;;1.50;;
80307;SDS011;69616;43.522;1.348;2023-07-13T03:48:56;8.63;;;1.70;;
80307;SDS011;69616;43.522;1.348;2023-07-13T03:51:22;6.78;;;1.90;;
80307;SDS011;69616;43.522;1.348;2023-07-13T03:53:48;7.70;;;1.70;;
80307;SDS011;69616;43.522;1.348;2023-07-13T03:56:14;7.13;;;1.42;;
80307;SDS011;69616;43.522;1.348;2023-07-13T03:58:40;7.72;;;1.60;;
80307;SDS011;69616;43.522;1.348;2023-07-13T04:01:07;6.90;;;1.45;;
80307;SDS011;69616;43.522;1.348;2023-07-13T04:03:34;10.07;;;1.70;;
80307;SDS011;69616;43.522;1.348;2023-07-13T04:06:01;7.57;;;2.40;;
80307;SDS011;69616;43.522;1.348;2023-07-13T04:08:28;8.68;;;1.75;;
80307;SDS011;69616;43.522;1.348;2023-07-13T04:10:55;6.13;;;1.30;;
80307;SDS011;69616;43.522;1.348;2023-07-13T04:13:21;6.05;;;1.60;;
80307;SDS011;69616;43.522;1.348;2023-07-13T04:15:47;5.47;;;1.47;;
80307;SDS011;69616;43.522;1.348;2023-07-13T04:18:12;7.03;;;1.43;;
80307;SDS011;69616;43.522;1.348;2023-07-13T04:20:37;7.37;;;1.57;;
80307;SDS011;69616;43.522;1.348;2023-07-13T04:23:03;7.20;;;1.33;;
80307;SDS011;69616;43.522;1.348;2023-07-13T04:25:29;5.97;;;1.40;;
80307;SDS011;69616;43.522;1.348;2023-07-13T04:27:54;4.85;;;1.20;;
80307;SDS011;69616;43.522;1.348;2023-07-13T04:30:20;7.97;;;1.87;;
80307;SDS011;69616;43.522;1.348;2023-07-13T04:32:46;5.93;;;1.52;;
80307;SDS011;69616;43.522;1.348;2023-07-13T04:35:11;5.87;;;1.40;;
80307;SDS011;69616;43.522;1.348;2023-07-13T04:37:37;7.97;;;1.50;;
80307;SDS011;69616;43.522;1.348;2023-07-13T04:40:03;7.87;;;1.57;;
80307;SDS011;69616;43.522;1.348;2023-07-13T04:42:28;7.30;;;1.50;;
80307;SDS011;69616;43.522;1.348;2023-07-13T04:44:54;4.90;;;1.10;;
80307;SDS011;69616;43.522;1.348;2023-07-13T04:47:20;7.47;;;1.40;;
80307;SDS011;69616;43.522;1.348;2023-07-13T04:49:45;9.33;;;1.40;;
80307;SDS011;69616;43.522;1.348;2023-07-13T04:52:11;8.87;;;1.70;;
80307;SDS011;69616;43.522;1.348;2023-07-13T04:54:37;7.45;;;1.42;;
80307;SDS011;69616;43.522;1.348;2023-07-13T04:57:04;6.40;;;1.65;;
80307;SDS011;69616;43.522;1.348;2023-07-13T04:59:31;9.38;;;1.30;;
80307;SDS011;69616;43.522;1.348;2023-07-13T05:01:59;8.20;;;1.60;;
80307;SDS011;69616;43.522;1.348;2023-07-13T05:04:26;7.00;;;1.55;;
80307;SDS011;69616;43.522;1.348;2023-07-13T05:06:52;7.20;;;1.50;;
80307;SDS011;69616;43.522;1.348;2023-07-13T05:09:17;8.33;;;1.40;;
80307;SDS011;69616;43.522;1.348;2023-07-13T05:11:43;9.77;;;1.50;;
80307;SDS011;69616;43.522;1.348;2023-07-13T05:14:08;8.50;;;1.30;;
80307;SDS011;69616;43.522;1.348;2023-07-13T05:16:34;5.63;;;1.42;;
80307;SDS011;69616;43.522;1.348;2023-07-13T05:19:00;4.53;;;1.20;;
80307;SDS011;69616;43.522;1.348;2023-07-13T05:21:26;7.20;;;1.50;;
80307;SDS011;69616;43.522;1.348;2023-07-13T05:23:51;9.20;;;1.40;;
80307;SDS011;69616;43.522;1.348;2023-07-13T05:26:17;5.17;;;1.13;;
80307;SDS011;69616;43.522;1.348;2023-07-13T05:28:42;6.47;;;1.48;;
80307;SDS011;69616;43.522;1.348;2023-07-13T05:31:08;7.80;;;1.50;;
80307;SDS011;69616;43.522;1.348;2023-07-13T05:33:34;6.20;;;1.73;;
80307;SDS011;69616;43.522;1.348;2023-07-13T05:36:00;8.77;;;1.60;;
80307;SDS011;69616;43.522;1.348;2023-07-13T05:38:26;8.23;;;1.60;;
80307;SDS011;69616;43.522;1.348;2023-07-13T05:40:52;13.98;;;5.10;;
80307;SDS011;69616;43.522;1.348;2023-07-13T05:43:19;12.60;;;3.70;;
80307;SDS011;69616;43.522;1.348;2023-07-13T05:45:44;11.47;;;3.57;;
80307;SDS011;69616;43.522;1.348;2023-07-13T05:48:10;19.03;;;7.10;;
80307;SDS011;69616;43.522;1.348;2023-07-13T05:50:35;12.90;;;3.90;;
80307;SDS011;69616;43.522;1.348;2023-07-13T05:53:00;9.90;;;2.75;;
80307;SDS011;69616;43.522;1.348;2023-07-13T05:55:26;7.83;;;1.53;;
80307;SDS011;69616;43.522;1.348;2023-07-13T05:57:51;6.53;;;1.10;;
80307;SDS011;69616;43.522;1.348;2023-07-13T06:00:17;6.77;;;1.40;;
80307;SDS011;69616;43.522;1.348;2023-07-13T06:02:42;6.25;;;1.20;;
80307;SDS011;69616;43.522;1.348;2023-07-13T06:05:08;7.63;;;1.13;;
80307;SDS011;69616;43.522;1.348;2023-07-13T06:07:33;8.73;;;1.60;;
80307;SDS011;69616;43.522;1.348;2023-07-13T06:09:59;8.75;;;1.42;;
80307;SDS011;69616;43.522;1.348;2023-07-13T06:12:24;6.93;;;1.27;;
80307;SDS011;69616;43.522;1.348;2023-07-13T06:14:50;5.75;;;1.55;;
80307;SDS011;69616;43.522;1.348;2023-07-13T06:17:16;7.07;;;1.50;;
80307;SDS011;69616;43.522;1.348;2023-07-13T06:19:41;8.33;;;1.10;;
80307;SDS011;69616;43.522;1.348;2023-07-13T06:22:07;6.05;;;1.23;;
80307;SDS011;69616;43.522;1.348;2023-07-13T06:24:32;6.93;;;1.50;;
80307;SDS011;69616;43.522;1.348;2023-07-13T06:26:58;6.77;;;1.37;;
80307;SDS011;69616;43.522;1.348;2023-07-13T06:29:23;7.30;;;1.60;;
80307;SDS011;69616;43.522;1.348;2023-07-13T06:31:48;6.77;;;1.30;;
80307;SDS011;69616;43.522;1.348;2023-07-13T06:34:14;9.10;;;1.37;;
80307;SDS011;69616;43.522;1.348;2023-07-13T06:36:39;6.93;;;1.63;;
80307;SDS011;69616;43.522;1.348;2023-07-13T06:39:06;5.40;;;1.17;;
80307;SDS011;69616;43.522;1.348;2023-07-13T06:41:31;4.60;;;1.00;;
80307;SDS011;69616;43.522;1.348;2023-07-13T06:43:58;5.53;;;1.20;;
80307;SDS011;69616;43.522;1.348;2023-07-13T06:46:23;6.27;;;0.90;;
80307;SDS011;69616;43.522;1.348;2023-07-13T06:48:49;6.07;;;0.85;;
80307;SDS011;69616;43.522;1.348;2023-07-13T06:51:14;6.30;;;1.40;;
80307;SDS011;69616;43.522;1.348;2023-07-13T06:53:40;5.30;;;1.17;;
80307;SDS011;69616;43.522;1.348;2023-07-13T06:56:07;7.22;;;1.17;;
80307;SDS011;69616;43.522;1.348;2023-07-13T06:58:33;6.20;;;1.10;;
80307;SDS011;69616;43.522;1.348;2023-07-13T07:00:59;6.65;;;1.20;;
80307;SDS011;69616;43.522;1.348;2023-07-13T07:03:24;5.60;;;1.17;;
80307;SDS011;69616;43.522;1.348;2023-07-13T07:05:50;6.70;;;1.13;;
80307;SDS011;69616;43.522;1.348;2023-07-13T07:08:15;6.27;;;1.47;;
80307;SDS011;69616;43.522;1.348;2023-07-13T07:10:41;6.00;;;1.13;;
80307;SDS011;69616;43.522;1.348;2023-07-13T07:13:07;5.38;;;0.90;;
80307;SDS011;69616;43.522;1.348;2023-07-13T07:15:33;4.10;;;0.90;;
80307;SDS011;69616;43.522;1.348;2023-07-13T07:17:59;5.55;;;0.82;;
80307;SDS011;69616;43.522;1.348;2023-07-13T07:20:25;5.07;;;0.90;;
80307;SDS011;69616;43.522;1.348;2023-07-13T07:22:51;5.28;;;0.77;;
80307;SDS011;69616;43.522;1.348;2023-07-13T07:25:17;7.05;;;1.00;;
80307;SDS011;69616;43.522;1.348;2023-07-13T07:27:42;4.73;;;0.70;;
80307;SDS011;69616;43.522;1.348;2023-07-13T07:30:08;8.93;;;0.97;;
80307;SDS011;69616;43.522;1.348;2023-07-13T07:32:34;4.40;;;0.73;;
80307;SDS011;69616;43.522;1.348;2023-07-13T07:34:59;7.03;;;0.70;;
80307;SDS011;69616;43.522;1.348;2023-07-13T07:37:24;4.67;;;0.63;;
80307;SDS011;69616;43.522;1.348;2023-07-13T07:39:50;5.20;;;0.77;;
80307;SDS011;69616;43.522;1.348;2023-07-13T07:42:16;4.07;;;0.63;;
80307;SDS011;69616;43.522;1.348;2023-07-13T07:44:41;4.03;;;0.70;;
80307;SDS011;69616;43.522;1.348;2023-07-13T07:47:07;5.97;;;0.80;;
80307;SDS011;69616;43.522;1.348;2023-07-13T07:49:33;6.05;;;0.80;;
80307;SDS011;69616;43.522;1.348;2023-07-13T07:51:59;7.00;;;0.87;;
80307;SDS011;69616;43.522;1.348;2023-07-13T07:54:24;4.07;;;0.80;;
80307;SDS011;69616;43.522;1.348;2023-07-13T07:56:50;5.43;;;1.07;;
80307;SDS011;69616;43.522;1.348;2023-07-13T07:59:15;8.27;;;0.93;;
80307;SDS011;69616;43.522;1.348;2023-07-13T08:01:41;6.07;;;0.90;;
80307;SDS011;69616;43.522;1.348;2023-07-13T08:04:06;7.60;;;1.70;;
80307;SDS011;69616;43.522;1.348;2023-07-13T08:06:32;7.75;;;1.00;;
80307;SDS011;69616;43.522;1.348;2023-07-13T08:08:59;7.03;;;1.10;;
80307;SDS011;69616;43.522;1.348;2023-07-13T08:11:24;7.50;;;1.00;;
80307;SDS011;69616;43.522;1.348;2023-07-13T08:13:50;6.57;;;0.90;;
80307;SDS011;69616;43.522;1.348;2023-07-13T08:16:16;4.70;;;0.82;;
80307;SDS011;69616;43.522;1.348;2023-07-13T08:18:41;4.73;;;0.90;;
80307;SDS011;69616;43.522;1.348;2023-07-13T08:21:07;8.13;;;1.00;;
80307;SDS011;69616;43.522;1.348;2023-07-13T08:23:33;4.37;;;0.83;;
80307;SDS011;69616;43.522;1.348;2023-07-13T08:25:59;6.22;;;0.95;;
80307;SDS011;69616;43.522;1.348;2023-07-13T08:28:26;5.68;;;0.70;;
80307;SDS011;69616;43.522;1.348;2023-07-13T08:30:52;6.78;;;1.00;;
80307;SDS011;69616;43.522;1.348;2023-07-13T08:33:18;5.30;;;0.90;;
80307;SDS011;69616;43.522;1.348;2023-07-13T08:35:46;7.00;;;1.20;;
80307;SDS011;69616;43.522;1.348;2023-07-13T08:38:12;5.35;;;1.00;;
80307;SDS011;69616;43.522;1.348;2023-07-13T08:40:37;4.67;;;1.00;;
80307;SDS011;69616;43.522;1.348;2023-07-13T08:43:04;4.97;;;0.82;;
80307;SDS011;69616;43.522;1.348;2023-07-13T08:45:32;4.90;;;0.70;;
80307;SDS011;69616;43.522;1.348;2023-07-13T08:48:29;5.57;;;0.88;;
80307;SDS011;69616;43.522;1.348;2023-07-13T08:50:58;6.50;;;0.85;;
80307;SDS011;69616;43.522;1.348;2023-07-13T08:53:49;5.55;;;1.00;;
80307;SDS011;69616;43.522;1.348;2023-07-13T08:56:22;7.27;;;1.10;;
80307;SDS011;69616;43.522;1.348;2023-07-13T08:58:53;5.68;;;0.88;;
80307;SDS011;69616;43.522;1.348;2023-07-13T09:01:24;5.40;;;0.80;;
80307;SDS011;69616;43.522;1.348;2023-07-13T09:04:09;6.57;;;1.00;;
80307;SDS011;69616;43.522;1.348;2023-07-13T09:09:37;4.90;;;0.80;;
80307;SDS011;69616;43.522;1.348;2023-07-13T09:12:25;6.13;;;0.80;;
80307;SDS011;69616;43.522;1.348;2023-07-13T09:14:59;6.85;;;1.00;;
80307;SDS011;69616;43.522;1.348;2023-07-13T09:17:33;4.47;;;0.75;;
80307;SDS011;69616;43.522;1.348;2023-07-13T09:22:52;6.70;;;0.90;;
80307;SDS011;69616;43.522;1.348;2023-07-13T09:25:32;4.18;;;0.70;;
80307;SDS011;69616;43.522;1.348;2023-07-13T09:28:10;4.32;;;0.70;;
80307;SDS011;69616;43.522;1.348;2023-07-13T09:30:45;4.80;;;0.90;;
80307;SDS011;69616;43.522;1.348;2023-07-13T09:33:32;4.53;;;0.73;;
80307;SDS011;69616;43.522;1.348;2023-07-13T09:35:59;5.78;;;0.82;;
80307;SDS011;69616;43.522;1.348;2023-07-13T09:38:25;4.18;;;0.93;;
80307;SDS011;69616;43.522;1.348;2023-07-13T09:40:58;5.57;;;0.90;;
80307;SDS011;69616;43.522;1.348;2023-07-13T09:46:35;5.60;;;0.90;;
80307;SDS011;69616;43.522;1.348;2023-07-13T09:49:01;3.25;;;0.80;;
80307;SDS011;69616;43.522;1.348;2023-07-13T09:51:26;5.23;;;1.20;;
80307;SDS011;69616;43.522;1.348;2023-07-13T09:53:52;4.27;;;0.87;;
80307;SDS011;69616;43.522;1.348;2023-07-13T09:56:23;6.20;;;1.00;;
80307;SDS011;69616;43.522;1.348;2023-07-13T09:58:51;6.20;;;1.10;;
80307;SDS011;69616;43.522;1.348;2023-07-13T10:01:30;8.10;;;1.10;;
80307;SDS011;69616;43.522;1.348;2023-07-13T10:04:01;6.28;;;0.95;;
80307;SDS011;69616;43.522;1.348;2023-07-13T10:06:26;7.35;;;1.13;;
80307;SDS011;69616;43.522;1.348;2023-07-13T10:08:52;5.90;;;1.17;;
80307;SDS011;69616;43.522;1.348;2023-07-13T10:11:21;4.18;;;0.90;;
80307;SDS011;69616;43.522;1.348;2023-07-13T10:16:22;4.20;;;1.05;;
80307;SDS011;69616;43.522;1.348;2023-07-13T10:18:50;6.30;;;1.17;;
80307;SDS011;69616;43.522;1.348;2023-07-13T10:21:20;4.67;;;1.10;;
80307;SDS011;69616;43.522;1.348;2023-07-13T10:23:54;5.55;;;0.90;;
80307;SDS011;69616;43.522;1.348;2023-07-13T10:26:31;4.97;;;0.77;;
80307;SDS011;69616;43.522;1.348;2023-07-13T10:29:02;4.93;;;1.05;;
80307;SDS011;69616;43.522;1.348;2023-07-13T10:31:33;4.65;;;1.20;;
80307;SDS011;69616;43.522;1.348;2023-07-13T10:34:02;5.67;;;1.00;;
80307;SDS011;69616;43.522;1.348;2023-07-13T10:36:28;5.53;;;1.10;;
80307;SDS011;69616;43.522;1.348;2023-07-13T10:39:01;5.07;;;1.07;;
80307;SDS011;69616;43.522;1.348;2023-07-13T10:41:28;6.57;;;1.20;;
80307;SDS011;69616;43.522;1.348;2023-07-13T10:43:58;4.50;;;1.00;;
80307;SDS011;69616;43.522;1.348;2023-07-13T10:46:25;4.88;;;1.02;;
80307;SDS011;69616;43.522;1.348;2023-07-13T10:48:57;3.90;;;0.90;;
80307;SDS011;69616;43.522;1.348;2023-07-13T10:51:24;5.10;;;1.00;;
80307;SDS011;69616;43.522;1.348;2023-07-13T10:54:10;5.03;;;0.90;;
80307;SDS011;69616;43.522;1.348;2023-07-13T10:56:40;4.28;;;0.93;;
80307;SDS011;69616;43.522;1.348;2023-07-13T11:01:52;5.13;;;1.10;;
80307;SDS011;69616;43.522;1.348;2023-07-13T11:04:27;4.43;;;0.95;;
80307;SDS011;69616;43.522;1.348;2023-07-13T11:07:10;4.20;;;1.00;;
80307;SDS011;69616;43.522;1.348;2023-07-13T11:09:49;5.47;;;0.80;;
80307;SDS011;69616;43.522;1.348;2023-07-13T11:19:53;5.07;;;1.00;;
80307;SDS011;69616;43.522;1.348;2023-07-13T11:22:24;5.15;;;0.90;;
80307;SDS011;69616;43.522;1.348;2023-07-13T11:24:58;5.05;;;1.30;;
80307;SDS011;69616;43.522;1.348;2023-07-13T11:27:46;5.80;;;1.03;;
80307;SDS011;69616;43.522;1.348;2023-07-13T11:31:16;4.00;;;0.90;;
80307;SDS011;69616;43.522;1.348;2023-07-13T11:36:05;3.75;;;0.90;;
80307;SDS011;69616;43.522;1.348;2023-07-13T11:41:22;5.80;;;1.07;;
80307;SDS011;69616;43.522;1.348;2023-07-13T11:43:55;5.50;;;1.20;;
80307;SDS011;69616;43.522;1.348;2023-07-13T11:46:27;4.45;;;1.00;;
80307;SDS011;69616;43.522;1.348;2023-07-13T11:48:53;5.63;;;1.10;;
80307;SDS011;69616;43.522;1.348;2023-07-13T11:51:26;5.43;;;1.07;;
80307;SDS011;69616;43.522;1.348;2023-07-13T11:53:55;6.35;;;1.30;;
80307;SDS011;69616;43.522;1.348;2023-07-13T11:56:22;4.47;;;1.17;;
80307;SDS011;69616;43.522;1.348;2023-07-13T11:58:51;3.97;;;1.23;;
80307;SDS011;69616;43.522;1.348;2023-07-13T12:01:21;5.63;;;1.40;;
80307;SDS011;69616;43.522;1.348;2023-07-13T12:03:48;5.55;;;1.23;;
80307;SDS011;69616;43.522;1.348;2023-07-13T12:06:33;5.85;;;1.17;;
80307;SDS011;69616;43.522;1.348;2023-07-13T12:09:10;4.65;;;1.20;;
80307;SDS011;69616;43.522;1.348;2023-07-13T12:11:38;5.67;;;1.23;;
80307;SDS011;69616;43.522;1.348;2023-07-13T12:14:06;5.75;;;1.45;;
80307;SDS011;69616;43.522;1.348;2023-07-13T12:16:36;3.95;;;1.10;;
80307;SDS011;69616;43.522;1.348;2023-07-13T12:19:02;3.72;;;1.00;;
80307;SDS011;69616;43.522;1.348;2023-07-13T12:21:37;3.97;;;1.10;;
80307;SDS011;69616;43.522;1.348;2023-07-13T12:24:04;6.10;;;1.23;;
80307;SDS011;69616;43.522;1.348;2023-07-13T12:26:39;7.40;;;1.40;;
80307;SDS011;69616;43.522;1.348;2023-07-13T12:29:05;3.80;;;1.00;;
80307;SDS011;69616;43.522;1.348;2023-07-13T12:31:35;6.55;;;1.20;;
80307;SDS011;69616;43.522;1.348;2023-07-13T12:34:18;4.00;;;1.00;;
80307;SDS011;69616;43.522;1.348;2023-07-13T12:36:47;4.82;;;1.20;;
80307;SDS011;69616;43.522;1.348;2023-07-13T12:39:34;4.87;;;1.03;;
80307;SDS011;69616;43.522;1.348;2023-07-13T12:44:48;4.78;;;1.02;;
80307;SDS011;69616;43.522;1.348;2023-07-13T12:47:14;4.27;;;1.10;;
80307;SDS011;69616;43.522;1.348;2023-07-13T12:49:52;5.23;;;1.00;;
80307;SDS011;69616;43.522;1.348;2023-07-13T12:52:21;5.10;;;1.20;;
80307;SDS011;69616;43.522;1.348;2023-07-13T12:54:58;6.13;;;1.20;;
80307;SDS011;69616;43.522;1.348;2023-07-13T12:57:29;5.00;;;1.20;;
80307;SDS011;69616;43.522;1.348;2023-07-13T12:59:55;6.87;;;1.10;;
80307;SDS011;69616;43.522;1.348;2023-07-13T13:02:30;4.80;;;0.90;;
80307;SDS011;69616;43.522;1.348;2023-07-13T13:04:59;4.53;;;1.02;;
80307;SDS011;69616;43.522;1.348;2023-07-13T13:07:26;4.40;;;1.08;;
80307;SDS011;69616;43.522;1.348;2023-07-13T13:09:52;5.90;;;1.30;;
80307;SDS011;69616;43.522;1.348;2023-07-13T13:12:20;3.80;;;1.00;;
80307;SDS011;69616;43.522;1.348;2023-07-13T13:14:45;5.40;;;1.10;;
80307;SDS011;69616;43.522;1.348;2023-07-13T13:17:21;5.80;;;1.20;;
80307;SDS011;69616;43.522;1.348;2023-07-13T13:19:52;5.05;;;1.10;;
80307;SDS011;69616;43.522;1.348;2023-07-13T13:22:22;6.68;;;1.17;;
80307;SDS011;69616;43.522;1.348;2023-07-13T13:24:47;5.10;;;1.20;;
80307;SDS011;69616;43.522;1.348;2023-07-13T13:27:17;6.10;;;1.23;;
80307;SDS011;69616;43.522;1.348;2023-07-13T13:29:45;4.32;;;1.13;;
80307;SDS011;69616;43.522;1.348;2023-07-13T13:32:12;6.43;;;1.13;;
80307;SDS011;69616;43.522;1.348;2023-07-13T13:34:38;3.97;;;1.15;;
80307;SDS011;69616;43.522;1.348;2023-07-13T13:37:04;6.30;;;1.20;;
80307;SDS011;69616;43.522;1.348;2023-07-13T13:39:43;4.33;;;1.10;;
80307;SDS011;69616;43.522;1.348;2023-07-13T13:42:08;5.60;;;0.93;;
80307;SDS011;69616;43.522;1.348;2023-07-13T13:44:35;3.90;;;0.90;;
80307;SDS011;69616;43.522;1.348;2023-07-13T13:47:00;4.10;;;0.97;;
80307;SDS011;69616;43.522;1.348;2023-07-13T13:49:27;5.15;;;0.95;;
80307;SDS011;69616;43.522;1.348;2023-07-13T13:51:53;6.55;;;1.10;;
80307;SDS011;69616;43.522;1.348;2023-07-13T13:54:20;5.43;;;0.90;;
80307;SDS011;69616;43.522;1.348;2023-07-13T13:56:47;4.10;;;0.97;;
80307;SDS011;69616;43.522;1.348;2023-07-13T13:59:14;7.75;;;0.95;;
80307;SDS011;69616;43.522;1.348;2023-07-13T14:01:40;4.75;;;1.00;;
80307;SDS011;69616;43.522;1.348;2023-07-13T14:04:14;4.50;;;0.88;;
80307;SDS011;69616;43.522;1.348;2023-07-13T14:06:43;4.17;;;0.83;;
80307;SDS011;69616;43.522;1.348;2023-07-13T14:09:10;5.38;;;1.15;;
80307;SDS011;69616;43.522;1.348;2023-07-13T14:11:36;4.97;;;1.08;;
80307;SDS011;69616;43.522;1.348;2023-07-13T14:14:02;4.93;;;1.00;;
80307;SDS011;69616;43.522;1.348;2023-07-13T14:16:30;4.90;;;1.00;;
80307;SDS011;69616;43.522;1.348;2023-07-13T14:18:57;6.70;;;1.17;;
80307;SDS011;69616;43.522;1.348;2023-07-13T14:21:25;5.72;;;1.00;;
80307;SDS011;69616;43.522;1.348;2023-07-13T14:23:52;4.05;;;1.00;;
80307;SDS011;69616;43.522;1.348;2023-07-13T14:26:22;3.63;;;1.10;;
80307;SDS011;69616;43.522;1.348;2023-07-13T14:28:54;4.43;;;1.10;;
80307;SDS011;69616;43.522;1.348;2023-07-13T14:31:21;5.78;;;1.10;;
80307;SDS011;69616;43.522;1.348;2023-07-13T14:33:47;4.03;;;0.93;;
80307;SDS011;69616;43.522;1.348;2023-07-13T14:36:30;4.45;;;1.10;;
80307;SDS011;69616;43.522;1.348;2023-07-13T14:38:57;5.18;;;0.90;;
80307;SDS011;69616;43.522;1.348;2023-07-13T14:41:24;3.80;;;1.00;;
80307;SDS011;69616;43.522;1.348;2023-07-13T14:43:50;4.20;;;0.90;;
80307;SDS011;69616;43.522;1.348;2023-07-13T14:46:37;4.45;;;0.90;;
80307;SDS011;69616;43.522;1.348;2023-07-13T14:49:06;5.80;;;1.00;;
80307;SDS011;69616;43.522;1.348;2023-07-13T14:51:40;4.30;;;0.80;;
80307;SDS011;69616;43.522;1.348;2023-07-13T14:54:05;4.95;;;0.80;;
80307;SDS011;69616;43.522;1.348;2023-07-13T14:56:33;7.07;;;0.90;;
80307;SDS011;69616;43.522;1.348;2023-07-13T14:58:59;5.30;;;0.90;;
80307;SDS011;69616;43.522;1.348;2023-07-13T15:01:25;6.30;;;0.90;;
80307;SDS011;69616;43.522;1.348;2023-07-13T15:03:51;4.40;;;0.90;;
80307;SDS011;69616;43.522;1.348;2023-07-13T15:06:17;5.60;;;0.90;;
80307;SDS011;69616;43.522;1.348;2023-07-13T15:08:44;7.78;;;1.00;;
80307;SDS011;69616;43.522;1.348;2023-07-13T15:11:09;4.30;;;1.00;;
80307;SDS011;69616;43.522;1.348;2023-07-13T15:13:38;7.35;;;1.00;;
80307;SDS011;69616;43.522;1.348;2023-07-13T15:16:09;5.00;;;1.00;;
80307;SDS011;69616;43.522;1.348;2023-07-13T15:18:43;4.47;;;1.00;;
80307;SDS011;69616;43.522;1.348;2023-07-13T15:21:11;5.32;;;1.00;;
80307;SDS011;69616;43.522;1.348;2023-07-13T15:23:39;4.63;;;1.00;;
80307;SDS011;69616;43.522;1.348;2023-07-13T15:26:05;4.38;;;0.90;;